Time;durP1;ratioP1;P1;durP2;ratioP2;P2;SDS_P1;SDS_P2;PMS_P1;PMS_P2;Temp;Humidity;BMP_temperature;BMP_pressure;BME280_temperature;BME280_humidity;BME280_pressure;Samples;Min_cycle;Max_cycle;Signal;HPM_P1;HPM_P2
2023/06/30 00:00:33;;;;;;;4.75;3.42;;;;;;;23.94;59.66;101233.03;4979692;28;20498;-82
2023/06/30 00:02:59;;;;;;;;;;;;;;;23.96;59.49;101241.91;4990812;28;20050;-82
2023/06/30 00:05:25;;;;;;;3.88;3.47;;;;;;;23.91;59.58;101230.34;4980316;28;19914;-82
2023/06/30 00:07:54;;;;;;;;;;;;;;;23.94;59.50;101239.25;4990599;28;20065;-82
2023/06/30 00:10:23;;;;;;;3.97;3.60;;;;;;;23.84;59.63;101228.53;4989884;28;20312;-82
2023/06/30 00:12:49;;;;;;;3.88;3.53;;;;;;;23.92;59.78;101243.69;4991027;28;20030;-82
2023/06/30 00:15:15;;;;;;;;;;;;;;;23.96;59.50;101247.25;4974753;28;20481;-82
2023/06/30 00:17:40;;;;;;;3.63;3.30;;;;;;;23.88;59.65;101233.88;4991632;28;19914;-81
2023/06/30 00:20:06;;;;;;;;;;;;;;;23.95;59.71;101234.81;4984657;28;20490;-83
2023/06/30 00:22:35;;;;;;;5.47;3.42;;;;;;;23.92;59.65;101235.69;4971005;28;19985;-83
2023/06/30 00:25:01;;;;;;;3.67;3.28;;;;;;;23.89;59.48;101245.44;4986512;28;20165;-85
2023/06/30 00:27:26;;;;;;;;;;;;;;;23.93;59.67;101237.47;4991635;28;20109;-84
2023/06/30 00:29:52;;;;;;;4.10;3.70;;;;;;;23.85;59.45;101227.63;4991767;28;20376;-83
2023/06/30 00:32:18;;;;;;;;;;;;;;;23.89;59.73;101238.31;4998669;28;20519;-83
2023/06/30 00:34:43;;;;;;;4.40;3.70;;;;;;;23.85;59.53;101232.97;5010491;28;19935;-83
2023/06/30 00:37:09;;;;;;;;;;;;;;;23.89;59.61;101237.44;4995625;28;20036;-83
2023/06/30 00:39:34;;;;;;;3.80;3.30;;;;;;;23.85;59.60;101239.19;5010583;28;19909;-83
2023/06/30 00:42:00;;;;;;;3.97;3.60;;;;;;;23.73;59.61;101215.09;5010288;28;20520;-83
2023/06/30 00:44:26;;;;;;;;;;;;;;;23.89;59.55;101229.44;5009569;28;20029;-83
2023/06/30 00:46:52;;;;;;;3.85;3.47;;;;;;;23.81;59.55;101226.72;5007456;28;20367;-84
2023/06/30 00:49:18;;;;;;;3.92;3.50;;;;;;;23.74;59.70;101222.19;5011115;28;20025;-83
2023/06/30 00:51:44;;;;;;;3.42;3.13;;;;;;;23.83;59.72;101235.63;5005893;28;20065;-83
2023/06/30 00:54:09;;;;;;;;;;;;;;;23.86;59.49;101230.31;5011294;28;20101;-83
2023/06/30 00:56:35;;;;;;;3.30;3.00;;;;;;;23.84;59.55;101236.53;5004269;28;19941;-83
2023/06/30 00:59:00;;;;;;;;;;;;;;;23.85;59.50;101235.63;4992916;28;20506;-83
2023/06/30 01:01:32;;;;;;;3.90;3.60;;;;;;;23.81;59.59;101234.72;5007356;28;19913;-83
2023/06/30 01:04:36;;;;;;;3.30;3.00;;;;;;;23.82;59.50;101225.84;4997344;28;20026;-82
2023/06/30 01:07:09;;;;;;;3.58;3.28;;;;;;;23.81;59.45;101237.38;4963297;28;20037;-82
2023/06/30 01:09:39;;;;;;;3.38;3.08;;;;;;;23.77;59.50;101227.59;5009705;28;20021;-81
2023/06/30 01:12:05;;;;;;;3.88;3.47;;;;;;;23.80;59.48;101229.38;5033421;28;20496;-82
2023/06/30 01:14:31;;;;;;;;;;;;;;;23.81;59.62;101239.16;5017491;28;20034;-83
2023/06/30 01:16:57;;;;;;;3.58;3.13;;;;;;;23.66;59.50;101216.78;5010881;28;19959;-81
2023/06/30 01:19:27;;;;;;;3.42;3.13;;;;;;;23.72;59.46;101224.84;5013417;28;20101;-83
2023/06/30 01:21:56;;;;;;;3.42;3.10;;;;;;;23.75;59.64;101235.53;4993745;28;20022;-83
2023/06/30 01:24:24;;;;;;;3.60;3.30;;;;;;;23.75;59.70;101235.53;4996473;28;20030;-82
2023/06/30 01:26:50;;;;;;;3.10;2.90;;;;;;;23.75;59.67;101232.00;4996836;28;20022;-83
2023/06/30 01:29:16;;;;;;;;;;;;;;;23.80;59.58;101238.28;5007387;28;20024;-83
2023/06/30 01:31:43;;;;;;;3.65;3.00;;;;;;;23.75;59.64;101240.88;5007809;28;19913;-83
2023/06/30 01:34:09;;;;;;;3.65;3.33;;;;;;;23.73;59.62;101234.66;5018177;28;20030;-83
2023/06/30 01:36:34;;;;;;;;;;;;;;;23.76;59.37;101240.00;5008636;28;20458;-83
2023/06/30 01:39:00;;;;;;;3.53;3.22;;;;;;;23.61;59.68;101213.22;5007634;28;19913;-83
2023/06/30 01:41:25;;;;;;;;;;;;;;;23.77;59.36;101238.25;5000161;28;20481;-86
2023/06/30 01:43:51;;;;;;;3.92;3.45;;;;;;;23.67;59.36;101220.38;5019148;28;20392;-82
2023/06/30 01:46:16;;;;;;;;;;;;;;;23.75;59.49;101230.22;4986924;28;20417;-83
2023/06/30 01:48:43;;;;;;;3.42;3.13;;;;;;;23.75;59.42;101232.00;5010309;28;19956;-82
2023/06/30 01:51:11;;;;;;;3.55;3.25;;;;;;;23.74;59.37;101228.41;5008911;28;20466;-82
2023/06/30 01:53:37;;;;;;;4.72;3.40;;;;;;;23.69;59.28;101222.16;4993793;28;20025;-83
2023/06/30 01:56:02;;;;;;;;;;;;;;;23.76;59.34;101228.47;5005773;28;20466;-83
2023/06/30 01:58:28;;;;;;;3.78;3.30;;;;;;;23.72;59.22;101227.50;5012221;28;19976;-83
2023/06/30 02:00:53;;;;;;;;;;;;;;;23.72;59.44;101231.94;5019707;28;20034;-82
2023/06/30 02:03:19;;;;;;;3.90;3.55;;;;;;;23.55;59.46;101202.50;4997817;28;19914;-83
2023/06/30 02:05:44;;;;;;;;;;;;;;;23.67;59.59;101215.03;5006358;28;20151;-85
2023/06/30 02:08:10;;;;;;;3.53;3.20;;;;;;;23.70;59.65;101223.03;5013206;28;19923;-85
2023/06/30 02:10:35;;;;;;;;;;;;;;;23.69;59.31;101222.16;5020370;28;20037;-83
2023/06/30 02:13:01;;;;;;;3.60;3.30;;;;;;;23.55;59.44;101208.72;5018410;28;19917;-83
2023/06/30 02:15:26;;;;;;;;;;;;;;;23.54;59.46;101211.41;5013918;28;20512;-84
2023/06/30 02:17:53;;;;;;;3.72;3.30;;;;;;;23.54;59.42;101216.72;5017723;28;19921;-84
2023/06/30 02:20:19;;;;;;;3.85;3.20;;;;;;;23.65;59.46;101222.13;5009124;28;20042;-84
2023/06/30 02:22:44;;;;;;;;;;;;;;;23.65;59.34;101233.69;5013073;28;20018;-84
2023/06/30 02:25:10;;;;;;;4.10;3.70;;;;;;;23.52;59.49;101216.69;5009552;28;19921;-84
2023/06/30 02:27:35;;;;;;;;;;;;;;;23.61;59.50;101234.53;5010293;28;20478;-84
2023/06/30 02:30:05;;;;;;;3.60;3.20;;;;;;;23.59;59.50;101236.31;5009157;28;20286;-84
2023/06/30 02:32:32;;;;;;;3.47;3.17;;;;;;;23.60;59.35;101237.19;4998586;28;20110;-83
2023/06/30 02:34:58;;;;;;;3.38;3.13;;;;;;;23.55;59.50;101232.72;5009258;28;20029;-83
2023/06/30 02:37:24;;;;;;;;;;;;;;;23.54;59.63;101230.94;5001828;28;20394;-84
2023/06/30 02:39:50;;;;;;;3.88;3.50;;;;;;;23.48;59.54;101227.34;5003032;28;20024;-83
2023/06/30 02:42:16;;;;;;;3.30;3.00;;;;;;;23.26;59.47;101186.25;4992899;28;20085;-85
2023/06/30 02:44:41;;;;;;;;;;;;;;;23.58;59.49;101234.53;5019765;28;20117;-83
2023/06/30 02:47:07;;;;;;;3.60;3.30;;;;;;;23.52;59.62;101230.03;5008456;28;19921;-84
2023/06/30 02:49:33;;;;;;;3.65;3.28;;;;;;;23.41;59.50;101212.16;5009848;28;20091;-82
2023/06/30 02:51:58;;;;;;;3.45;3.15;;;;;;;23.51;59.63;101233.56;4999391;28;20044;-84
2023/06/30 02:54:24;;;;;;;;;;;;;;;23.54;59.58;101238.94;5014085;28;20037;-83
2023/06/30 02:56:49;;;;;;;3.08;2.85;;;;;;;23.53;59.45;101236.25;4993331;28;20412;-83
2023/06/30 02:59:15;;;;;;;3.83;3.15;;;;;;;23.47;59.56;101233.53;5018576;28;20092;-82
2023/06/30 03:01:41;;;;;;;;;;;;;;;23.53;59.36;101234.47;5011952;28;20038;-83
2023/06/30 03:04:07;;;;;;;5.53;3.70;;;;;;;23.47;59.47;101234.41;5011158;28;19944;-84
2023/06/30 03:06:32;;;;;;;;;;;;;;;23.52;59.51;101239.81;5023425;28;20038;-83
2023/06/30 03:08:58;;;;;;;4.43;2.85;;;;;;;23.45;59.51;101236.22;5006120;28;19913;-82
2023/06/30 03:11:24;;;;;;;;;;;;;;;23.45;59.56;101238.88;5010593;28;20033;-83
2023/06/30 03:13:51;;;;;;;3.38;3.00;;;;;;;23.31;59.55;101227.19;4998837;28;20434;-83
2023/06/30 03:16:16;;;;;;;3.33;3.03;;;;;;;23.37;59.58;101232.56;5016704;28;20026;-83
2023/06/30 03:18:42;;;;;;;;;;;;;;;23.45;59.62;101248.63;5005019;28;20037;-82
2023/06/30 03:21:07;;;;;;;3.30;3.00;;;;;;;23.37;59.33;101222.81;5027377;28;20028;-84
2023/06/30 03:23:33;;;;;;;;;;;;;;;23.45;59.69;101240.63;4991794;28;20489;-84
2023/06/30 03:25:58;;;;;;;3.13;2.88;;;;;;;23.40;59.63;101231.72;4993467;28;19909;-83
2023/06/30 03:28:24;;;;;;;;;;;;;;;23.37;59.80;101235.25;5007602;28;20386;-82
2023/06/30 03:30:50;;;;;;;3.60;3.10;;;;;;;23.07;59.75;101183.47;5006023;28;19957;-83
2023/06/30 03:33:15;;;;;;;3.20;2.90;;;;;;;23.17;59.71;101211.06;4990270;28;20068;-82
2023/06/30 03:35:41;;;;;;;;;;;;;;;23.43;59.60;101245.97;5004578;28;20061;-82
2023/06/30 03:38:06;;;;;;;3.35;3.00;;;;;;;23.40;59.66;101250.38;4995821;28;19960;-83
2023/06/30 03:40:32;;;;;;;4.50;3.35;;;;;;;23.37;59.69;101244.13;5009197;28;20121;-82
2023/06/30 03:42:57;;;;;;;;;;;;;;;23.39;59.59;101244.16;5009482;28;20032;-79
2023/06/30 03:45:23;;;;;;;3.80;3.40;;;;;;;23.32;59.76;101245.84;5011821;28;19920;-84
2023/06/30 03:47:48;;;;;;;;;;;;;;;23.38;59.58;101248.56;5006475;28;20125;-85
2023/06/30 03:50:14;;;;;;;4.93;3.20;;;;;;;23.31;59.40;101240.50;5008769;28;20285;-84
2023/06/30 03:52:39;;;;;;;;;;;;;;;23.34;59.66;101251.19;4997934;28;20113;-85
2023/06/30 03:55:05;;;;;;;4.63;2.95;;;;;;;23.31;59.92;101245.84;5010339;28;19917;-83
2023/06/30 03:57:31;;;;;;;3.70;3.10;;;;;;;23.37;59.53;101249.44;5014582;28;20470;-84
2023/06/30 03:59:57;;;;;;;3.65;2.85;;;;;;;23.32;59.84;101251.16;5012193;28;20033;-82
2023/06/30 04:02:23;;;;;;;3.72;3.28;;;;;;;23.23;59.85;101237.75;5008341;28;20080;-82
2023/06/30 04:04:48;;;;;;;;;;;;;;;23.37;59.60;101262.78;5010993;28;20033;-81
2023/06/30 04:07:14;;;;;;;3.33;3.00;;;;;;;23.27;59.71;101249.34;5015798;28;20334;-83
2023/06/30 04:09:39;;;;;;;3.25;2.95;;;;;;;22.88;59.65;101184.09;5011590;28;20508;-83
2023/06/30 04:12:05;;;;;;;;;;;;;;;23.38;59.47;101266.34;5018070;28;20076;-83
2023/06/30 04:14:31;;;;;;;3.40;3.10;;;;;;;23.40;59.54;101271.69;5019714;28;19924;-83
2023/06/30 04:16:56;;;;;;;;;;;;;;;23.41;59.58;101270.78;5009571;28;20037;-81
2023/06/30 04:19:21;;;;;;;3.50;3.20;;;;;;;23.40;59.60;101267.25;5014497;28;19914;-84
2023/06/30 04:21:47;;;;;;;;;;;;;;;23.38;59.65;101271.66;5002127;28;20835;-84
2023/06/30 04:24:13;;;;;;;3.35;3.13;;;;;;;23.25;59.45;101249.34;5003871;28;19917;-84
2023/06/30 04:26:40;;;;;;;3.10;2.80;;;;;;;23.23;59.52;101240.44;5019524;28;20029;-83
2023/06/30 04:29:05;;;;;;;3.38;3.08;;;;;;;23.26;59.68;101242.22;5017340;28;20080;-83
2023/06/30 04:31:30;;;;;;;;;;;;;;;23.40;59.59;101269.91;5009625;28;20060;-84
2023/06/30 04:33:56;;;;;;;3.30;3.00;;;;;;;23.25;59.78;101253.78;5007099;28;19921;-82
2023/06/30 04:36:21;;;;;;;;;;;;;;;23.38;59.54;101277.88;5011801;28;20033;-82
2023/06/30 04:38:50;;;;;;;3.20;3.00;;;;;;;23.33;59.67;101274.28;5022162;28;19919;-82
2023/06/30 04:41:16;;;;;;;3.28;2.97;;;;;;;22.94;59.79;101211.72;5019305;28;20161;-83
2023/06/30 04:43:43;;;;;;;;;;;;;;;23.41;59.58;101281.44;5006608;28;20141;-82
2023/06/30 04:46:09;;;;;;;2.90;2.70;;;;;;;23.34;59.75;101285.84;5011582;28;19909;-84
2023/06/30 04:48:35;;;;;;;;;;;;;;;23.38;59.77;101282.31;5023859;28;20551;-82
2023/06/30 04:51:04;;;;;;;3.55;3.15;;;;;;;23.32;59.95;101284.94;4992166;28;19924;-84
2023/06/30 04:53:30;;;;;;;3.72;3.38;;;;;;;23.30;59.85;101276.03;4992247;28;20392;-84
2023/06/30 04:55:55;;;;;;;;;;;;;;;23.33;59.83;101276.97;5014140;28;20022;-82
2023/06/30 04:58:21;;;;;;;3.50;3.03;;;;;;;23.27;59.86;101268.00;5003949;28;19975;-83
2023/06/30 05:00:47;;;;;;;4.03;3.20;;;;;;;23.28;59.95;101273.38;5014618;28;20030;-84
2023/06/30 05:03:12;;;;;;;;;;;;;;;23.34;59.99;101285.84;5015991;28;20025;-84
2023/06/30 05:05:38;;;;;;;3.42;3.10;;;;;;;23.33;60.03;101284.06;5013924;28;19913;-85
2023/06/30 05:08:04;;;;;;;;;;;;;;;23.35;59.95;101280.53;5018974;28;20014;-84
2023/06/30 05:10:29;;;;;;;3.70;3.15;;;;;;;23.16;59.99;101255.47;5006349;28;19924;-87
2023/06/30 05:12:55;;;;;;;;;;;;;;;23.36;59.90;101281.41;4995960;28;20057;-87
2023/06/30 05:15:20;;;;;;;3.10;2.90;;;;;;;23.30;59.93;101278.69;5026781;28;20379;-84
2023/06/30 05:17:46;;;;;;;;;;;;;;;23.35;59.84;101279.66;5001107;28;20096;-85
2023/06/30 05:20:12;;;;;;;3.33;3.13;;;;;;;23.28;60.04;101270.69;5007414;28;19913;-86
2023/06/30 05:22:37;;;;;;;3.15;2.95;;;;;;;22.94;60.21;101210.81;5000588;28;20036;-84
2023/06/30 05:25:03;;;;;;;;;;;;;;;23.36;59.90;101284.97;4993092;28;20046;-86
2023/06/30 05:27:29;;;;;;;3.78;3.47;;;;;;;23.16;59.95;101254.59;5006291;28;20305;-85
2023/06/30 05:29:54;;;;;;;;;;;;;;;23.32;60.16;101288.47;5025515;28;20037;-86
2023/06/30 05:32:19;;;;;;;3.55;3.25;;;;;;;23.14;59.83;101251.00;5000322;28;20032;-86
2023/06/30 05:34:46;;;;;;;;;;;;;;;23.34;60.21;101283.16;5023882;28;20496;-86
2023/06/30 05:37:12;;;;;;;3.67;3.37;;;;;;;23.26;60.13;101276.88;5009890;28;21694;-85
2023/06/30 05:39:38;;;;;;;3.97;3.25;;;;;;;23.31;60.09;101280.50;4996637;28;20036;-86
2023/06/30 05:42:04;;;;;;;;;;;;;;;23.35;60.22;101295.63;4993922;28;20034;-85
2023/06/30 05:44:30;;;;;;;3.30;3.00;;;;;;;22.99;60.06;101230.41;5015698;28;19943;-86
2023/06/30 05:46:55;;;;;;;;;;;;;;;23.42;59.87;101296.59;5008123;28;20061;-83
2023/06/30 05:49:21;;;;;;;4.00;3.15;;;;;;;23.38;59.92;101293.88;5008920;28;20320;-84
2023/06/30 05:51:48;;;;;;;3.40;3.10;;;;;;;23.15;60.39;101261.66;4995563;28;20046;-85
2023/06/30 05:54:14;;;;;;;3.17;2.97;;;;;;;23.28;60.19;101273.38;5025935;28;20044;-85
2023/06/30 05:56:40;;;;;;;3.50;3.20;;;;;;;23.11;60.04;101251.88;5014376;28;20034;-84
2023/06/30 05:59:09;;;;;;;;;;;;;;;23.41;59.93;101292.13;5001665;28;20038;-84
2023/06/30 06:01:38;;;;;;;3.53;3.22;;;;;;;23.36;60.15;101292.97;5021432;28;19914;-86
2023/06/30 06:04:08;;;;;;;3.28;3.05;;;;;;;23.32;60.17;101285.81;5004044;28;20095;-89
2023/06/30 06:06:33;;;;;;;3.80;3.50;;;;;;;23.23;59.94;101269.75;5033734;28;20040;-88
2023/06/30 06:08:59;;;;;;;;;;;;;;;23.35;60.08;101293.84;4995992;28;20042;-88
2023/06/30 06:11:24;;;;;;;3.65;3.33;;;;;;;23.29;60.15;101271.59;5028088;28;19913;-88
2023/06/30 06:13:57;;;;;;;;;;;;;;;23.36;60.20;101287.63;5007586;28;20092;-89
2023/06/30 06:16:22;;;;;;;3.67;3.35;;;;;;;23.25;60.28;101277.75;4995333;28;19910;-87
2023/06/30 06:18:48;;;;;;;;;;;;;;;23.34;60.27;101284.06;5002294;28;20505;-88
2023/06/30 06:21:16;;;;;;;3.42;3.13;;;;;;;23.34;60.25;101284.06;5001111;28;19909;-85
2023/06/30 06:23:41;;;;;;;3.47;3.17;;;;;;;23.29;60.32;101282.25;4996027;28;20033;-86
2023/06/30 06:26:07;;;;;;;;;;;;;;;23.34;60.28;101281.38;5002672;28;20791;-85
2023/06/30 06:28:32;;;;;;;3.47;3.17;;;;;;;22.98;60.21;101223.28;4999967;28;20415;-85
2023/06/30 06:30:58;;;;;;;;;;;;;;;23.28;60.40;101272.44;5014669;28;20034;-87
2023/06/30 06:33:24;;;;;;;3.10;2.90;;;;;;;23.29;60.56;101274.25;5012987;28;19917;-88
2023/06/30 06:35:53;;;;;;;;;;;;;;;23.30;60.64;101276.03;4996511;28;20530;-86
2023/06/30 06:38:19;;;;;;;3.55;3.25;;;;;;;23.16;60.61;101252.81;4984409;28;19983;-87
2023/06/30 06:40:45;;;;;;;3.50;3.20;;;;;;;23.21;60.94;101263.50;5003431;28;20030;-85
2023/06/30 06:43:11;;;;;;;3.53;3.22;;;;;;;23.22;60.49;101265.31;5011949;28;20034;-86
2023/06/30 06:45:37;;;;;;;3.28;3.03;;;;;;;23.03;61.00;101226.00;5008739;28;20097;-86
2023/06/30 06:48:35;;;;;;;;;;;;;;;23.31;60.71;101278.72;4998184;28;20069;-86
2023/06/30 06:51:02;;;;;;;3.50;3.20;;;;;;;23.29;60.64;101263.59;4984848;28;19913;-84
2023/06/30 06:53:29;;;;;;;4.03;3.63;;;;;;;23.16;60.91;101242.16;5010800;28;20038;-85
2023/06/30 06:55:56;;;;;;;3.50;3.20;;;;;;;23.23;60.46;101245.75;5000227;28;20600;-85
2023/06/30 06:58:23;;;;;;;3.47;3.17;;;;;;;23.27;60.64;101249.34;5014416;28;20509;-84
2023/06/30 07:00:51;;;;;;;3.88;3.45;;;;;;;23.33;60.60;101265.41;5015710;28;20029;-86
2023/06/30 07:03:17;;;;;;;3.88;3.58;;;;;;;23.20;60.57;101245.75;5008834;28;20036;-84
2023/06/30 07:05:44;;;;;;;;;;;;;;;23.35;60.63;101269.00;5020025;28;20089;-85
2023/06/30 07:08:11;;;;;;;3.60;3.30;;;;;;;23.36;60.73;101262.75;5024215;28;19913;-85
2023/06/30 07:10:36;;;;;;;3.42;3.13;;;;;;;23.20;60.67;101242.16;4994735;28;20030;-84
2023/06/30 07:13:02;;;;;;;;;;;;;;;23.40;60.49;101269.91;4994016;28;20032;-84
2023/06/30 07:15:28;;;;;;;3.60;3.30;;;;;;;23.35;60.57;101267.19;5022324;28;20289;-84
2023/06/30 07:17:55;;;;;;;;;;;;;;;23.42;60.52;101273.47;4995842;28;20027;-84
2023/06/30 07:20:21;;;;;;;;;;;;;;;23.46;60.33;101269.97;5022746;28;20478;-84
2023/06/30 07:22:47;;;;;;;3.90;3.50;;;;;;;23.09;60.48;101210.09;4998261;28;19987;-85
2023/06/30 07:25:12;;;;;;;;;;;;;;;23.46;60.57;101266.41;5008971;28;20030;-85
2023/06/30 07:27:38;;;;;;;3.88;3.55;;;;;;;23.45;60.58;101265.53;5022791;28;20359;-85
2023/06/30 07:30:05;;;;;;;;;;;;;;;23.47;60.58;101269.06;5012875;28;20068;-86
2023/06/30 07:32:34;;;;;;;3.80;3.50;;;;;;;23.28;60.37;101233.41;4990044;28;19917;-85
2023/06/30 07:35:02;;;;;;;3.72;3.42;;;;;;;23.52;60.41;101271.81;4995612;28;20084;-86
2023/06/30 07:37:28;;;;;;;3.55;3.20;;;;;;;23.12;60.25;101208.38;4958664;28;20497;-85
2023/06/30 07:39:53;;;;;;;;;;;;;;;23.55;60.30;101285.16;4975464;28;20085;-86
2023/06/30 07:42:19;;;;;;;3.45;3.15;;;;;;;23.27;60.31;101238.69;4988491;28;19914;-85
2023/06/30 07:44:44;;;;;;;;;;;;;;;23.58;60.32;101283.41;4992987;28;20516;-84
2023/06/30 07:47:10;;;;;;;3.88;3.55;;;;;;;23.54;60.24;101272.72;4959959;28;20029;-85
2023/06/30 07:49:35;;;;;;;;;;;;;;;23.60;60.39;101287.84;4981503;28;20033;-86
2023/06/30 07:52:01;;;;;;;3.78;3.38;;;;;;;23.58;60.41;101287.84;4975063;28;19914;-85
2023/06/30 07:54:26;;;;;;;3.63;3.33;;;;;;;23.30;60.47;101244.03;4974903;28;20410;-85
2023/06/30 07:56:52;;;;;;;;;;;;;;;23.62;60.45;101294.09;4991014;28;20037;-85
2023/06/30 07:59:18;;;;;;;3.72;3.38;;;;;;;23.60;60.29;101293.19;4994896;28;19917;-85
2023/06/30 08:01:44;;;;;;;;;;;;;;;23.62;60.57;101291.41;4991601;28;20026;-84
2023/06/30 08:04:11;;;;;;;3.85;3.55;;;;;;;23.34;60.49;101246.75;4990990;28;19918;-86
2023/06/30 08:06:36;;;;;;;3.60;3.40;;;;;;;23.53;60.48;101273.56;4977946;28;20030;-86
2023/06/30 08:09:05;;;;;;;;;;;;;;;23.64;60.45;101290.53;4976837;28;20712;-86
2023/06/30 08:11:30;;;;;;;3.70;3.40;;;;;;;23.65;60.60;101296.81;4975983;28;19909;-84
2023/06/30 08:13:56;;;;;;;;;;;;;;;23.66;60.52;101287.91;4982451;28;20166;-86
2023/06/30 08:16:22;;;;;;;4.50;4.10;;;;;;;23.64;60.51;101282.53;4996609;28;19917;-85
2023/06/30 08:18:48;;;;;;;;;;;;;;;23.66;60.54;101275.44;4976284;28;20030;-85
2023/06/30 08:21:14;;;;;;;4.38;3.97;;;;;;;23.60;60.73;101271.84;4976821;28;19917;-85
2023/06/30 08:23:39;;;;;;;;;;;;;;;23.69;60.74;101285.28;4975727;28;20518;-86
2023/06/30 08:26:05;;;;;;;4.55;3.90;;;;;;;23.67;60.82;101279.03;4957164;28;19909;-85
2023/06/30 08:28:30;;;;;;;;;;;;;;;23.67;60.83;101279.94;4971985;28;20536;-84
2023/06/30 08:30:56;;;;;;;4.28;3.85;;;;;;;23.70;60.56;101274.59;4991352;28;20458;-85
2023/06/30 08:33:30;;;;;;;;;;;;;;;23.74;60.73;101268.41;4995986;28;20038;-84
2023/06/30 08:35:55;;;;;;;5.00;3.85;;;;;;;23.74;60.87;101263.09;5003131;28;19916;-86
2023/06/30 08:38:21;;;;;;;;;;;;;;;23.74;60.91;101262.19;4984124;28;20113;-85
2023/06/30 08:40:46;;;;;;;4.78;4.35;;;;;;;23.48;60.72;101214.91;4992185;28;19920;-84
2023/06/30 08:43:12;;;;;;;;;;;;;;;23.78;60.64;101262.25;5010530;28;20121;-85
2023/06/30 08:45:43;;;;;;;4.32;3.88;;;;;;;23.63;60.63;101237.22;5009984;28;19912;-84
2023/06/30 08:48:09;;;;;;;5.53;4.15;;;;;;;23.70;60.67;101233.72;4981864;28;20397;-84
2023/06/30 08:50:35;;;;;;;4.63;4.22;;;;;;;23.55;60.73;101207.84;4976241;28;20087;-83
2023/06/30 08:53:01;;;;;;;;;;;;;;;23.82;60.67;101260.50;4993313;28;20026;-84
2023/06/30 08:55:27;;;;;;;4.63;4.13;;;;;;;23.73;60.63;101228.41;5032601;28;19917;-84
2023/06/30 08:57:57;;;;;;;4.47;4.07;;;;;;;23.69;60.58;101226.63;4994346;28;20037;-85
2023/06/30 09:00:25;;;;;;;4.43;4.03;;;;;;;23.74;60.56;101235.53;5009316;28;20036;-84
2023/06/30 09:02:53;;;;;;;4.47;4.07;;;;;;;23.88;60.88;101246.34;4991468;28;20040;-86
2023/06/30 09:05:20;;;;;;;5.47;3.90;;;;;;;23.49;60.81;101178.47;4992471;28;20056;-86
2023/06/30 09:07:56;;;;;;;4.50;4.10;;;;;;;23.90;60.74;101239.25;5001720;28;20492;-85
2023/06/30 09:10:23;;;;;;;4.40;4.00;;;;;;;23.84;60.64;101217.84;5004683;28;20030;-84
2023/06/30 09:12:51;;;;;;;4.53;4.13;;;;;;;23.94;60.76;101235.72;5007881;28;20027;-84
2023/06/30 09:15:24;;;;;;;4.28;3.88;;;;;;;23.93;60.66;101242.81;4993488;28;20033;-84
2023/06/30 09:17:54;;;;;;;4.75;4.00;;;;;;;23.97;60.73;101239.28;5003703;28;20480;-84
2023/06/30 09:20:24;;;;;;;4.55;4.13;;;;;;;23.87;60.81;101217.88;4995632;28;20148;-86
2023/06/30 09:22:51;;;;;;;4.28;3.88;;;;;;;23.68;60.51;101185.69;4982801;28;20045;-84
2023/06/30 09:25:26;;;;;;;4.30;3.90;;;;;;;23.99;60.65;101236.63;5015058;28;20084;-84
2023/06/30 09:27:52;;;;;;;4.50;3.97;;;;;;;23.96;60.57;101228.59;5005300;28;20082;-85
2023/06/30 09:30:18;;;;;;;5.45;4.30;;;;;;;23.82;60.64;101199.16;4993265;28;20037;-83
2023/06/30 09:32:43;;;;;;;;;;;;;;;24.02;60.60;101228.63;5004958;28;20037;-82
2023/06/30 09:35:14;;;;;;;5.38;4.22;;;;;;;24.03;60.62;101227.75;5014543;28;19909;-84
2023/06/30 09:37:44;;;;;;;4.30;3.90;;;;;;;24.01;60.47;101223.31;4991379;28;20030;-83
2023/06/30 09:40:23;;;;;;;4.43;4.03;;;;;;;23.95;60.43;101217.03;5015722;28;20022;-84
2023/06/30 09:42:52;;;;;;;4.35;3.97;;;;;;;24.06;60.54;101233.09;5004958;28;20404;-83
2023/06/30 09:45:17;;;;;;;4.65;4.25;;;;;;;24.09;60.55;101229.56;4991640;28;20081;-83
2023/06/30 09:47:43;;;;;;;;;;;;;;;24.11;60.58;101227.81;4996456;28;20029;-84
2023/06/30 09:50:10;;;;;;;4.70;4.30;;;;;;;24.04;60.36;101215.31;4990192;28;19917;-82
2023/06/30 09:52:37;;;;;;;5.15;4.38;;;;;;;23.98;60.33;101203.72;4998452;28;20032;-84
2023/06/30 09:55:08;;;;;;;4.07;3.78;;;;;;;24.05;60.30;101207.31;4995954;28;20030;-84
2023/06/30 09:57:37;;;;;;;4.50;4.10;;;;;;;24.13;60.49;101210.91;5021795;28;20037;-84
2023/06/30 10:00:03;;;;;;;5.07;4.57;;;;;;;24.16;60.60;101215.38;4995053;28;20036;-86
2023/06/30 10:02:29;;;;;;;4.75;4.35;;;;;;;24.13;60.41;101215.34;4985314;28;20042;-84
2023/06/30 10:04:54;;;;;;;;;;;;;;;24.19;60.36;101220.72;5001257;28;20476;-84
2023/06/30 10:07:20;;;;;;;5.13;4.20;;;;;;;24.15;60.20;101219.81;4990218;28;19921;-84
2023/06/30 10:09:45;;;;;;;;;;;;;;;24.20;60.36;101217.19;5002073;28;20105;-85
2023/06/30 10:12:11;;;;;;;4.93;4.25;;;;;;;24.20;60.30;101216.28;4993566;28;20613;-84
2023/06/30 10:14:38;;;;;;;4.38;3.97;;;;;;;24.09;60.31;101194.91;4993749;28;20041;-84
2023/06/30 10:17:04;;;;;;;5.63;4.50;;;;;;;24.15;60.33;101192.22;5020862;28;20481;-85
2023/06/30 10:19:30;;;;;;;4.18;3.88;;;;;;;24.13;60.24;101189.56;5000306;28;20048;-85
2023/06/30 10:21:56;;;;;;;;;;;;;;;24.28;60.27;101206.56;4995220;28;20493;-83
2023/06/30 10:24:37;;;;;;;4.60;4.20;;;;;;;24.24;59.87;101191.41;4985918;28;19921;-84
2023/06/30 10:27:07;;;;;;;4.63;4.20;;;;;;;24.26;60.23;101201.19;5016200;28;20021;-85
2023/06/30 10:29:34;;;;;;;4.40;4.00;;;;;;;24.29;60.16;101203.88;5008047;28;20033;-85
2023/06/30 10:31:59;;;;;;;5.78;4.60;;;;;;;24.33;60.40;101199.44;5009994;28;20094;-86
2023/06/30 10:34:25;;;;;;;;;;;;;;;24.34;60.04;101195.88;5020435;28;20026;-85
2023/06/30 10:36:51;;;;;;;5.28;4.25;;;;;;;24.17;60.02;101174.44;4989243;28;20396;-81
2023/06/30 10:39:17;;;;;;;4.63;3.95;;;;;;;24.14;59.78;101166.44;5010718;28;20033;-82
2023/06/30 10:41:49;;;;;;;3.70;3.40;;;;;;;24.19;59.64;101170.00;5011673;28;20034;-82
2023/06/30 10:44:19;;;;;;;4.70;4.30;;;;;;;24.17;60.00;101158.44;5005891;28;20026;-81
2023/06/30 10:46:52;;;;;;;5.13;4.45;;;;;;;24.13;59.98;101148.63;4991872;28;20032;-83
2023/06/30 10:49:27;;;;;;;4.63;4.22;;;;;;;24.32;59.84;101179.88;4999931;28;20534;-82
2023/06/30 10:52:08;;;;;;;4.38;3.97;;;;;;;24.41;59.99;101192.34;5011841;28;20021;-83
2023/06/30 10:54:50;;;;;;;5.35;3.97;;;;;;;24.42;60.09;101190.56;4991325;28;20117;-81
2023/06/30 10:57:26;;;;;;;4.35;3.90;;;;;;;24.43;59.80;101179.91;4998394;28;20044;-82
2023/06/30 11:00:10;;;;;;;4.22;3.83;;;;;;;24.44;59.90;101189.69;4982400;28;20030;-82
2023/06/30 11:02:37;;;;;;;4.38;3.95;;;;;;;24.36;59.88;101167.41;5009073;28;20088;-82
2023/06/30 11:05:22;;;;;;;4.50;4.10;;;;;;;24.45;59.69;101172.78;5008665;28;20492;-83
2023/06/30 11:07:49;;;;;;;4.80;4.22;;;;;;;24.35;59.73;101157.63;4978301;28;20117;-82
2023/06/30 11:10:45;;;;;;;4.80;4.30;;;;;;;24.45;59.87;101175.47;5010339;28;20022;-83
2023/06/30 11:13:11;;;;;;;4.35;3.95;;;;;;;24.36;59.64;101157.66;4975158;28;20087;-81
2023/06/30 11:15:43;;;;;;;;;;;;;;;24.50;59.76;101175.50;4978877;28;20025;-81
2023/06/30 11:18:13;;;;;;;4.50;4.10;;;;;;;24.48;59.91;101161.22;5009474;28;20015;-81
2023/06/30 11:21:00;;;;;;;4.15;3.78;;;;;;;24.50;59.76;101164.84;4977596;28;20091;-81
2023/06/30 11:23:37;;;;;;;4.03;3.72;;;;;;;24.46;59.85;101152.31;4999705;28;20062;-81
2023/06/30 11:26:13;;;;;;;4.35;3.95;;;;;;;24.49;59.73;101155.03;5001619;28;20413;-81
2023/06/30 11:28:40;;;;;;;4.70;4.03;;;;;;;24.39;59.97;101138.94;5011010;28;20022;-81
2023/06/30 11:31:06;;;;;;;5.30;4.00;;;;;;;24.51;59.80;101155.91;4993524;28;20049;-81
2023/06/30 11:33:31;;;;;;;;;;;;;;;24.56;59.79;101163.06;5007449;28;20173;-81
2023/06/30 11:35:59;;;;;;;5.47;3.90;;;;;;;24.45;59.62;101140.75;4962788;28;20450;-81
2023/06/30 11:38:27;;;;;;;;;;;;;;;24.57;59.61;101156.84;5008358;28;20504;-81
2023/06/30 11:40:56;;;;;;;5.18;4.22;;;;;;;24.45;59.96;101135.41;5010608;28;19909;-82
2023/06/30 11:43:22;;;;;;;5.35;4.18;;;;;;;24.55;59.98;101145.28;4978267;28;20125;-81
2023/06/30 11:45:55;;;;;;;;;;;;;;;24.58;59.84;101147.94;4994604;28;20041;-82